createdAt,value
2018-10-09T00:01:08.789Z,8.32
2018-10-09T00:03:38.182Z,8.26
2018-10-09T00:06:07.652Z,8.21
2018-10-09T00:08:37.208Z,8.18
2018-10-09T00:11:06.938Z,8.15
2018-10-09T00:13:36.346Z,8.10
2018-10-09T00:16:05.749Z,8.05
2018-10-09T00:18:35.260Z,8.00
2018-10-09T00:21:04.681Z,7.96
2018-10-09T00:23:34.129Z,7.92
2018-10-09T00:26:03.585Z,7.89
2018-10-09T00:28:32.971Z,7.85
2018-10-09T00:31:02.388Z,7.81
2018-10-09T00:33:31.778Z,7.76
2018-10-09T00:36:01.895Z,7.75
2018-10-09T00:38:31.309Z,7.70
2018-10-09T00:41:00.842Z,7.67
2018-10-09T00:43:30.240Z,7.63
2018-10-09T00:45:59.726Z,7.60
2018-10-09T00:48:29.142Z,7.57
2018-10-09T00:50:58.564Z,7.55
2018-10-09T00:53:27.993Z,7.52
2018-10-09T00:55:57.448Z,7.48
2018-10-09T00:58:26.866Z,7.45
2018-10-09T01:00:56.252Z,7.42
2018-10-09T01:03:25.712Z,7.36
2018-10-09T01:05:55.112Z,7.30
2018-10-09T01:08:24.542Z,7.28
2018-10-09T01:10:53.971Z,7.26
2018-10-09T01:13:23.372Z,7.24
2018-10-09T01:15:52.767Z,7.23
2018-10-09T01:18:22.503Z,7.23
2018-10-09T01:20:51.930Z,7.22
2018-10-09T01:23:21.345Z,7.20
2018-10-09T01:25:50.760Z,7.17
2018-10-09T01:28:20.147Z,7.11
2018-10-09T01:30:49.548Z,7.05
2018-10-09T01:33:19.151Z,7.02
2018-10-09T01:35:48.730Z,7.00
2018-10-09T01:38:18.245Z,7.01
2018-10-09T01:40:48.073Z,7.01
2018-10-09T01:43:17.599Z,6.97
2018-10-09T01:45:47.139Z,6.95
2018-10-09T01:48:16.765Z,6.94
2018-10-09T01:50:46.323Z,6.94
2018-10-09T01:53:16.475Z,6.93
2018-10-09T01:55:45.997Z,6.94
2018-10-09T01:58:15.628Z,6.95
2018-10-09T02:00:45.141Z,6.97
2018-10-09T02:03:14.690Z,7.00
2018-10-09T02:05:44.332Z,7.00
2018-10-09T02:08:13.861Z,6.99
2018-10-09T02:10:43.400Z,7.00
2018-10-09T02:13:13.026Z,6.99
2018-10-09T02:15:42.584Z,6.99
2018-10-09T02:18:12.107Z,6.96
2018-10-09T02:20:41.674Z,6.96
2018-10-09T02:23:11.196Z,6.97
2018-10-09T02:25:40.865Z,6.97
2018-10-09T02:28:10.376Z,6.98
2018-10-09T02:30:39.913Z,6.94
2018-10-09T02:33:09.749Z,6.91
2018-10-09T02:35:39.492Z,6.89
2018-10-09T02:38:09.056Z,6.84
2018-10-09T02:40:38.587Z,6.81
2018-10-09T02:43:08.190Z,6.74
2018-10-09T02:45:37.767Z,6.69
2018-10-09T02:48:07.386Z,6.68
2018-10-09T02:50:36.929Z,6.67
2018-10-09T02:53:06.498Z,6.69
2018-10-09T02:55:35.981Z,6.75
2018-10-09T02:58:05.560Z,6.78
2018-10-09T03:00:35.068Z,6.79
2018-10-09T03:03:04.718Z,6.77
2018-10-09T03:05:34.255Z,6.73
2018-10-09T03:08:03.828Z,6.71
2018-10-09T03:10:33.336Z,6.70
2018-10-09T03:13:02.885Z,6.71
2018-10-09T03:15:32.407Z,6.73
2018-10-09T03:18:01.969Z,6.77
2018-10-09T03:20:31.572Z,6.79
2018-10-09T03:23:01.086Z,6.80
2018-10-09T03:25:30.581Z,6.81
2018-10-09T03:28:00.150Z,6.83
2018-10-09T03:30:29.654Z,6.84
2018-10-09T03:32:59.204Z,6.83
2018-10-09T03:35:28.766Z,6.83
2018-10-09T03:37:58.281Z,6.81
2018-10-09T03:40:27.792Z,6.80
2018-10-09T03:42:57.325Z,6.81
2018-10-09T03:45:26.871Z,6.84
2018-10-09T03:47:56.538Z,6.86
2018-10-09T03:50:26.271Z,6.89
2018-10-09T03:52:55.873Z,6.90
2018-10-09T03:55:25.432Z,6.93
2018-10-09T03:57:55.004Z,6.93
2018-10-09T04:00:24.569Z,6.93
2018-10-09T04:02:54.117Z,6.92
2018-10-09T04:05:23.644Z,6.91
2018-10-09T04:07:53.445Z,6.90
2018-10-09T04:10:23.037Z,6.89
2018-10-09T04:12:52.623Z,6.88
2018-10-09T04:15:22.148Z,6.88
2018-10-09T04:17:51.720Z,6.89
2018-10-09T04:20:21.282Z,6.89
2018-10-09T04:22:50.836Z,6.86
2018-10-09T04:25:20.401Z,6.83
2018-10-09T04:27:49.935Z,6.81
2018-10-09T04:30:19.490Z,6.79
2018-10-09T04:32:49.035Z,6.77
2018-10-09T04:35:18.649Z,6.75
2018-10-09T04:37:48.152Z,6.72
2018-10-09T04:40:17.837Z,6.73
2018-10-09T04:42:47.492Z,6.75
2018-10-09T04:45:17.048Z,6.77
2018-10-09T04:47:46.608Z,6.78
2018-10-09T04:50:16.413Z,6.77
2018-10-09T04:52:45.944Z,6.79
2018-10-09T04:55:15.539Z,6.80
2018-10-09T04:57:45.114Z,6.79
2018-10-09T05:00:14.679Z,6.78
2018-10-09T05:02:44.314Z,6.75
2018-10-09T05:05:13.964Z,6.71
2018-10-09T05:07:43.489Z,6.68
2018-10-09T05:10:13.093Z,6.67
2018-10-09T05:12:42.651Z,6.64
2018-10-09T05:15:12.239Z,6.62
2018-10-09T05:17:41.819Z,6.58
2018-10-09T05:20:11.801Z,6.55
2018-10-09T05:22:41.545Z,6.52
2018-10-09T05:25:11.093Z,6.49
2018-10-09T05:27:40.648Z,6.48
2018-10-09T05:30:10.269Z,6.48
2018-10-09T05:32:39.816Z,6.49
2018-10-09T05:35:09.368Z,6.52
2018-10-09T05:37:38.946Z,6.54
2018-10-09T05:40:08.469Z,6.59
2018-10-09T05:42:38.283Z,6.65
2018-10-09T05:45:08.325Z,6.74
2018-10-09T05:47:38.350Z,6.86
2018-10-09T05:50:10.223Z,6.99
2018-10-09T05:52:40.206Z,7.10
2018-10-09T05:55:10.255Z,7.21
2018-10-09T05:57:40.205Z,7.29
2018-10-09T06:00:10.819Z,7.38
2018-10-09T06:02:40.753Z,7.46
2018-10-09T06:05:10.772Z,7.58
2018-10-09T06:07:40.560Z,7.71
2018-10-09T06:10:10.914Z,7.88
2018-10-09T06:12:40.855Z,8.09
2018-10-09T06:15:10.741Z,8.35
2018-10-09T06:17:40.601Z,8.59
2018-10-09T06:20:10.485Z,8.79
2018-10-09T06:22:40.661Z,9.00
2018-10-09T06:25:10.434Z,9.19
2018-10-09T06:27:40.819Z,9.32
2018-10-09T06:30:10.817Z,9.48
2018-10-09T06:32:40.851Z,9.75
2018-10-09T06:35:10.881Z,10.14
2018-10-09T06:37:40.785Z,10.69
2018-10-09T06:40:10.696Z,11.19
2018-10-09T06:42:40.536Z,11.70
2018-10-09T06:45:10.383Z,12.03
2018-10-09T06:47:40.320Z,12.29
2018-10-09T06:50:10.321Z,12.54
2018-10-09T06:52:40.356Z,12.86
2018-10-09T06:55:10.376Z,13.33
2018-10-09T06:57:40.174Z,13.94
2018-10-09T07:00:10.234Z,14.51
2018-10-09T07:02:40.034Z,15.00
2018-10-09T07:05:09.868Z,15.36
2018-10-09T07:07:39.938Z,15.50
2018-10-09T07:10:09.787Z,15.46
2018-10-09T07:12:39.664Z,15.32
2018-10-09T07:15:10.027Z,15.16
2018-10-09T07:17:39.913Z,15.01
2018-10-09T07:20:09.873Z,14.87
2018-10-09T07:22:39.945Z,14.84
2018-10-09T07:25:10.323Z,14.99
2018-10-09T07:27:40.137Z,15.33
2018-10-09T07:30:11.015Z,15.85
2018-10-09T07:32:40.962Z,16.26
2018-10-09T07:35:11.370Z,16.47
2018-10-09T07:37:41.338Z,16.63
2018-10-09T07:40:11.098Z,16.63
2018-10-09T07:42:41.065Z,16.71
2018-10-09T07:45:11.026Z,16.84
2018-10-09T07:47:41.251Z,17.04
2018-10-09T07:50:11.174Z,17.41
2018-10-09T07:52:41.207Z,17.74
2018-10-09T07:55:11.254Z,18.00
2018-10-09T07:57:41.089Z,18.12
2018-10-09T08:00:10.977Z,18.13
2018-10-09T08:02:40.841Z,18.01
2018-10-09T08:05:10.617Z,17.84
2018-10-09T08:07:40.498Z,17.62
2018-10-09T08:10:11.595Z,17.31
2018-10-09T08:12:41.381Z,17.04
2018-10-09T08:15:11.212Z,16.80
2018-10-09T08:17:41.182Z,16.65
2018-10-09T08:20:10.977Z,16.61
2018-10-09T08:22:40.857Z,16.76
2018-10-09T08:25:10.634Z,16.98
2018-10-09T08:27:40.535Z,17.24
2018-10-09T08:30:10.357Z,17.56
2018-10-09T08:32:40.217Z,17.97
2018-10-09T08:35:10.028Z,18.58
2018-10-09T08:37:39.861Z,19.37
2018-10-09T08:40:09.726Z,20.00
2018-10-09T08:42:39.407Z,20.54
2018-10-09T08:45:09.503Z,21.02
2018-10-09T08:47:39.294Z,21.48
2018-10-09T08:50:09.078Z,21.89
2018-10-09T08:52:38.819Z,22.07
2018-10-09T08:55:08.767Z,22.14
2018-10-09T08:57:38.559Z,22.11
2018-10-09T09:00:09.377Z,21.96
2018-10-09T09:02:39.171Z,21.72
2018-10-09T09:05:09.270Z,21.51
2018-10-09T09:07:39.196Z,21.23
2018-10-09T09:10:09.138Z,21.01
2018-10-09T09:12:38.959Z,20.81
2018-10-09T09:15:09.354Z,20.56
2018-10-09T09:17:39.166Z,20.26
2018-10-09T09:20:08.808Z,19.99
2018-10-09T09:22:38.381Z,19.75
2018-10-09T09:25:07.956Z,19.64
2018-10-09T09:27:37.602Z,19.70
2018-10-09T09:30:08.153Z,20.00
2018-10-09T09:32:37.739Z,20.44
2018-10-09T09:35:07.318Z,21.12
2018-10-09T09:37:36.892Z,21.70
2018-10-09T09:40:07.248Z,22.29
2018-10-09T09:42:36.781Z,23.01
2018-10-09T09:45:06.861Z,23.53
2018-10-09T09:47:36.665Z,23.72
2018-10-09T09:50:06.742Z,23.76
2018-10-09T09:52:36.468Z,24.18
2018-10-09T09:55:06.271Z,24.82
2018-10-09T09:57:35.877Z,25.05
2018-10-09T10:00:05.502Z,25.03
2018-10-09T10:02:35.101Z,24.94
2018-10-09T10:05:05.016Z,24.75
2018-10-09T10:07:34.606Z,24.65
2018-10-09T10:10:04.333Z,24.58
2018-10-09T10:12:33.890Z,24.69
2018-10-09T10:15:03.622Z,24.92
2018-10-09T10:17:33.184Z,25.19
2018-10-09T10:20:02.786Z,25.29
2018-10-09T10:22:32.338Z,24.99
2018-10-09T10:25:02.122Z,24.75
2018-10-09T10:27:31.757Z,24.76
2018-10-09T10:30:01.330Z,24.61
2018-10-09T10:32:30.885Z,24.37
2018-10-09T10:35:00.737Z,24.22
2018-10-09T10:37:30.282Z,24.20
2018-10-09T10:39:59.878Z,24.27
2018-10-09T10:42:29.626Z,24.47
2018-10-09T10:44:59.320Z,24.71
2018-10-09T10:47:28.856Z,24.91
2018-10-09T10:49:58.415Z,24.92
2018-10-09T10:52:27.960Z,24.81
2018-10-09T10:54:57.569Z,24.63
2018-10-09T10:57:27.210Z,24.38
2018-10-09T10:59:56.721Z,24.22
2018-10-09T11:02:26.717Z,24.10
2018-10-09T11:04:56.265Z,24.09
2018-10-09T11:07:25.781Z,23.83
2018-10-09T11:09:55.348Z,23.59
2018-10-09T11:12:24.905Z,23.28
2018-10-09T11:14:54.412Z,22.98
2018-10-09T11:17:24.213Z,22.86
2018-10-09T11:19:53.869Z,22.77
2018-10-09T11:22:23.409Z,22.68
2018-10-09T11:24:52.962Z,22.42
2018-10-09T11:27:22.528Z,22.15
2018-10-09T11:29:52.069Z,22.04
2018-10-09T11:32:21.690Z,21.98
2018-10-09T11:34:51.234Z,21.90
2018-10-09T11:37:20.943Z,21.87
2018-10-09T11:39:50.462Z,21.86
2018-10-09T11:42:20.115Z,21.83
2018-10-09T11:44:49.672Z,21.86
2018-10-09T11:47:19.259Z,21.88
2018-10-09T11:49:48.865Z,21.93
2018-10-09T11:52:18.685Z,21.94
2018-10-09T11:54:48.213Z,21.92
2018-10-09T11:57:17.765Z,21.84
2018-10-09T11:59:47.341Z,21.77
2018-10-09T12:02:16.966Z,21.71
2018-10-09T12:04:46.557Z,21.69
2018-10-09T12:07:16.140Z,21.65
2018-10-09T12:09:45.717Z,21.65
2018-10-09T12:12:15.357Z,21.68
2018-10-09T12:14:44.889Z,21.65
2018-10-09T12:17:14.492Z,21.65
2018-10-09T12:19:44.121Z,21.69
2018-10-09T12:22:13.667Z,21.74
2018-10-09T12:24:43.240Z,21.77
2018-10-09T12:27:13.008Z,21.68
2018-10-09T12:29:42.488Z,21.54
2018-10-09T12:32:12.034Z,21.48
2018-10-09T12:34:41.675Z,21.42
2018-10-09T12:37:11.184Z,21.39
2018-10-09T12:39:40.729Z,21.33
2018-10-09T12:42:10.281Z,21.34
2018-10-09T12:44:39.905Z,21.34
2018-10-09T12:47:09.514Z,21.17
2018-10-09T12:49:39.068Z,21.16
2018-10-09T12:52:08.752Z,21.12
2018-10-09T12:54:38.334Z,21.10
2018-10-09T12:57:07.983Z,21.10
2018-10-09T12:59:37.599Z,21.12
2018-10-09T13:02:07.262Z,21.13
2018-10-09T13:04:36.881Z,21.10
2018-10-09T13:07:06.515Z,21.05
2018-10-09T13:09:36.169Z,20.92
2018-10-09T13:12:06.015Z,20.84
2018-10-09T13:14:35.632Z,20.78
2018-10-09T13:17:05.227Z,20.63
2018-10-09T13:19:34.913Z,20.53
2018-10-09T13:22:04.780Z,20.50
2018-10-09T13:24:34.082Z,20.45
2018-10-09T13:27:03.659Z,20.36
2018-10-09T13:29:33.218Z,20.27
2018-10-09T13:32:02.763Z,20.31
2018-10-09T13:34:32.388Z,20.31
2018-10-09T13:37:02.022Z,20.34
2018-10-09T13:39:31.928Z,20.39
2018-10-09T13:42:01.512Z,20.47
2018-10-09T13:44:31.024Z,20.50
2018-10-09T13:47:00.727Z,20.55
2018-10-09T13:49:30.410Z,20.64
2018-10-09T13:51:59.977Z,20.69
2018-10-09T13:54:29.608Z,20.75
2018-10-09T13:56:59.136Z,20.75
2018-10-09T13:59:28.914Z,20.72
2018-10-09T14:01:58.788Z,20.68
2018-10-09T14:04:28.396Z,20.66
2018-10-09T14:06:57.950Z,20.63
2018-10-09T14:09:27.532Z,20.57
2018-10-09T14:11:57.288Z,20.46
2018-10-09T14:14:26.968Z,20.38
2018-10-09T14:16:56.759Z,20.30
2018-10-09T14:19:26.382Z,20.23
2018-10-09T14:21:55.957Z,20.13
2018-10-09T14:24:25.550Z,20.02
2018-10-09T14:26:55.117Z,19.90
2018-10-09T14:29:24.635Z,19.75
2018-10-09T14:31:54.281Z,19.60
2018-10-09T14:34:23.967Z,19.48
2018-10-09T14:36:53.488Z,19.32
2018-10-09T14:39:23.132Z,19.18
2018-10-09T14:41:52.740Z,19.09
2018-10-09T14:44:22.548Z,18.97
2018-10-09T14:46:52.390Z,18.88
2018-10-09T14:49:22.068Z,18.80
2018-10-09T14:51:51.718Z,18.73
2018-10-09T14:54:21.669Z,18.65
2018-10-09T14:56:52.518Z,18.63
2018-10-09T14:59:22.125Z,18.61
2018-10-09T15:01:51.786Z,18.61
2018-10-09T15:04:22.068Z,18.60
2018-10-09T15:06:51.673Z,18.59
2018-10-09T15:09:21.431Z,18.59
2018-10-09T15:11:51.199Z,18.59
2018-10-09T15:14:20.795Z,18.60
2018-10-09T15:16:50.491Z,18.58
2018-10-09T15:19:20.077Z,18.56
2018-10-09T15:21:49.713Z,18.55
2018-10-09T15:24:19.342Z,18.54
2018-10-09T15:26:49.009Z,18.51
2018-10-09T15:29:18.589Z,18.50
2018-10-09T15:36:42.448Z,18.41
2018-10-09T15:39:13.040Z,18.35
2018-10-09T15:41:43.405Z,18.30
2018-10-09T15:44:12.921Z,18.25
2018-10-09T15:46:42.509Z,18.19
2018-10-09T15:49:12.076Z,18.13
2018-10-09T15:51:41.863Z,18.06
2018-10-09T15:54:11.568Z,17.97
2018-10-09T15:56:41.264Z,17.90
2018-10-09T15:59:10.788Z,17.83
2018-10-09T16:01:40.388Z,17.75
2018-10-09T16:04:10.050Z,17.67
2018-10-09T16:06:39.720Z,17.58
2018-10-09T16:09:10.732Z,17.49
2018-10-09T16:11:40.266Z,17.37
2018-10-09T16:14:10.032Z,17.26
2018-10-09T16:16:39.688Z,17.16
2018-10-09T16:19:09.841Z,17.06
2018-10-09T16:21:39.908Z,16.97
2018-10-09T16:24:09.670Z,16.87
2018-10-09T16:26:39.514Z,16.79
2018-10-09T16:29:09.142Z,16.71
2018-10-09T16:31:38.729Z,16.60
2018-10-09T16:34:08.536Z,16.50
2018-10-09T16:36:38.355Z,16.41
2018-10-09T16:39:11.992Z,16.37
2018-10-09T16:41:41.734Z,16.32
2018-10-09T16:44:11.933Z,16.24
2018-10-09T16:46:42.104Z,16.17
2018-10-09T16:49:11.775Z,16.09
2018-10-09T16:51:41.311Z,16.01
2018-10-09T16:54:10.889Z,15.95
2018-10-09T16:56:40.559Z,15.88
2018-10-09T16:59:10.244Z,15.82
2018-10-09T17:01:40.229Z,15.78
2018-10-09T17:04:09.893Z,15.72
2018-10-09T17:06:39.568Z,15.65
2018-10-09T17:09:10.815Z,15.61
2018-10-09T17:11:41.421Z,15.54
2018-10-09T17:14:11.725Z,15.48
2018-10-09T17:16:41.418Z,15.43
2018-10-09T17:19:11.125Z,15.38
2018-10-09T17:21:40.744Z,15.32
2018-10-09T17:24:10.275Z,15.27
2018-10-09T17:26:39.856Z,15.23
2018-10-09T17:29:09.629Z,15.18
2018-10-09T17:31:39.301Z,15.14
2018-10-09T17:34:08.858Z,15.10
2018-10-09T17:36:38.404Z,15.06
2018-10-09T17:39:10.775Z,15.02
2018-10-09T17:41:40.740Z,14.98
2018-10-09T17:44:10.396Z,14.96
2018-10-09T17:46:40.358Z,14.94
2018-10-09T17:49:09.987Z,14.92
2018-10-09T17:51:39.711Z,14.90
2018-10-09T17:54:09.353Z,14.86
2018-10-09T17:56:38.920Z,14.83
2018-10-09T17:59:08.473Z,14.80
2018-10-09T18:01:38.028Z,14.76
2018-10-09T18:04:07.708Z,14.73
2018-10-09T18:06:37.267Z,14.70
2018-10-09T18:09:10.617Z,14.66
2018-10-09T18:11:40.460Z,14.62
2018-10-09T18:14:10.833Z,14.57
2018-10-09T18:16:40.560Z,14.53
2018-10-09T18:19:10.098Z,14.49
2018-10-09T18:21:39.668Z,14.47
2018-10-09T18:24:09.415Z,14.46
2018-10-09T18:26:39.213Z,14.41
2018-10-09T18:29:09.121Z,14.40
2018-10-09T18:31:38.780Z,14.37
2018-10-09T18:34:09.142Z,14.34
2018-10-09T18:36:38.873Z,14.32
2018-10-09T18:39:16.718Z,14.31
2018-10-09T18:41:46.900Z,14.28
2018-10-09T18:44:16.603Z,14.26
2018-10-09T18:46:46.308Z,14.23
2018-10-09T18:49:15.832Z,14.20
2018-10-09T18:51:45.546Z,14.19
2018-10-09T18:54:15.213Z,14.17
2018-10-09T18:56:45.309Z,14.14
2018-10-09T18:59:14.897Z,14.11
2018-10-09T19:01:44.504Z,14.08
2018-10-09T19:04:14.057Z,14.05
2018-10-09T19:06:43.665Z,14.02
2018-10-09T19:09:13.282Z,13.99
2018-10-09T19:11:42.800Z,14.00
2018-10-09T19:14:12.469Z,14.00
2018-10-09T19:16:42.056Z,13.99
2018-10-09T19:19:11.720Z,13.98
2018-10-09T19:21:41.425Z,13.98
2018-10-09T19:24:11.028Z,13.99
2018-10-09T19:26:40.592Z,13.97
2018-10-09T19:29:10.529Z,13.97
2018-10-09T19:31:40.228Z,13.95
2018-10-09T19:35:38.858Z,13.95
2018-10-09T19:38:08.581Z,13.92
2018-10-09T19:40:38.197Z,13.91
2018-10-09T19:43:07.854Z,13.90
2018-10-09T19:45:37.532Z,13.89
2018-10-09T19:48:07.123Z,13.87
2018-10-09T19:50:36.959Z,13.87
2018-10-09T19:53:06.497Z,13.86
2018-10-09T19:55:36.041Z,13.84
2018-10-09T19:58:06.063Z,13.83
2018-10-09T20:00:36.356Z,13.81
2018-10-09T20:03:06.091Z,13.80
2018-10-09T20:05:35.870Z,13.78
2018-10-09T20:08:05.544Z,13.75
2018-10-09T20:10:35.308Z,13.72
2018-10-09T20:13:04.881Z,13.70
2018-10-09T20:15:34.483Z,13.68
2018-10-09T20:18:04.174Z,13.65
2018-10-09T20:20:33.748Z,13.62
2018-10-09T20:23:03.326Z,13.57
2018-10-09T20:25:32.883Z,13.55
2018-10-09T20:28:02.439Z,13.49
2018-10-09T20:30:31.976Z,13.46
2018-10-09T20:33:01.627Z,13.40
2018-10-09T20:35:31.344Z,13.39
2018-10-09T20:38:00.892Z,13.36
2018-10-09T20:40:30.441Z,13.34
2018-10-09T20:43:00.053Z,13.30
2018-10-09T20:45:29.628Z,13.29
2018-10-09T20:47:59.377Z,13.27
2018-10-09T20:50:29.729Z,13.25
2018-10-09T20:52:59.348Z,13.23
2018-10-09T20:55:28.956Z,13.19
2018-10-09T20:57:58.460Z,13.16
2018-10-09T21:00:28.051Z,13.14
2018-10-09T21:02:57.746Z,13.12
2018-10-09T21:05:27.395Z,13.10
2018-10-09T21:07:57.026Z,13.07
2018-10-09T21:10:27.109Z,13.04
2018-10-09T21:12:56.959Z,12.99
2018-10-09T21:15:26.835Z,12.96
2018-10-09T21:17:56.878Z,12.93
2018-10-09T21:20:26.790Z,12.91
2018-10-09T21:22:56.705Z,12.87
2018-10-09T21:25:26.601Z,12.84
2018-10-09T21:27:56.615Z,12.80
2018-10-09T21:30:27.436Z,12.77
2018-10-09T21:32:57.642Z,12.73
2018-10-09T21:35:27.965Z,12.71
2018-10-09T21:37:58.301Z,12.70
2018-10-09T21:40:28.325Z,12.69
2018-10-09T21:42:58.333Z,12.67
2018-10-09T21:45:28.319Z,12.65
2018-10-09T21:48:01.605Z,12.63
2018-10-09T21:50:31.536Z,12.62
2018-10-09T21:53:01.612Z,12.61
2018-10-09T21:55:31.576Z,12.61
2018-10-09T21:58:01.336Z,12.61
2018-10-09T22:00:35.340Z,12.62
2018-10-09T22:03:05.555Z,12.61
2018-10-09T22:05:36.142Z,12.61
2018-10-09T22:08:06.008Z,12.61
2018-10-09T22:10:35.820Z,12.62
2018-10-09T22:13:05.675Z,12.63
2018-10-09T22:15:36.299Z,12.63
2018-10-09T22:18:06.091Z,12.60
2018-10-09T22:20:35.873Z,12.58
2018-10-09T22:23:05.745Z,12.58
2018-10-09T22:25:35.563Z,12.56
2018-10-09T22:28:08.594Z,12.56
2018-10-09T22:30:38.487Z,12.55
2018-10-09T22:33:09.064Z,12.54
2018-10-09T22:35:39.275Z,12.54
2018-10-09T22:38:09.340Z,12.53
2018-10-09T22:40:39.226Z,12.51
2018-10-09T22:43:09.225Z,12.50
2018-10-09T22:45:39.071Z,12.47
2018-10-09T22:48:08.868Z,12.44
2018-10-09T22:50:38.788Z,12.40
2018-10-09T22:53:09.123Z,12.35
2018-10-09T22:55:39.018Z,12.32
2018-10-09T22:58:08.839Z,12.28
2018-10-09T23:00:38.636Z,12.25
2018-10-09T23:03:08.512Z,12.20
2018-10-09T23:05:38.254Z,12.15
2018-10-09T23:08:08.164Z,12.11
2018-10-09T23:10:37.898Z,12.07
2018-10-09T23:13:07.941Z,12.02
2018-10-09T23:15:37.923Z,11.96
2018-10-09T23:18:07.908Z,11.92
2018-10-09T23:20:38.828Z,11.87
2018-10-09T23:23:08.773Z,11.85
2018-10-09T23:25:39.998Z,11.78
2018-10-09T23:28:10.004Z,11.73
2018-10-09T23:30:39.825Z,11.66
2018-10-09T23:33:10.326Z,11.64
2018-10-09T23:35:40.082Z,11.62
2018-10-09T23:38:09.868Z,11.61
2018-10-09T23:40:39.648Z,11.60
2018-10-09T23:43:09.512Z,11.56
2018-10-09T23:45:39.214Z,11.52
2018-10-09T23:48:10.553Z,11.49
2018-10-09T23:50:41.596Z,11.49
2018-10-09T23:53:11.484Z,11.47
2018-10-09T23:55:41.233Z,11.45
2018-10-09T23:58:11.126Z,11.46
